Time;durP1;ratioP1;P1;durP2;ratioP2;P2;SDS_P1;SDS_P2;PMS_P1;PMS_P2;Temp;Humidity;BMP_temperature;BMP_pressure;BME280_temperature;BME280_humidity;BME280_pressure;Samples;Min_cycle;Max_cycle;Signal;HPM_P1;HPM_P2
2022/11/18 00:01:12;;;;;;;9.25;4.43;;;8.90;99.90;;;;;;4916192;29;20056;-65
2022/11/18 00:03:40;;;;;;;15.13;6.45;;;8.90;99.90;;;;;;4916097;29;20054;-67
2022/11/18 00:06:12;;;;;;;18.60;9.13;;;8.90;99.90;;;;;;4908807;29;20049;-67
2022/11/18 00:08:39;;;;;;;13.43;7.28;;;8.80;99.90;;;;;;4909921;29;20179;-66
2022/11/18 00:14:17;;;;;;;10.65;6.68;;;8.80;99.90;;;;;;4915932;29;20064;-66
2022/11/18 00:14:18;;;;;;;11.80;5.57;;;8.80;99.90;;;;;;4916101;29;20044;-67
2022/11/18 00:16:51;;;;;;;11.85;5.60;;;8.80;99.90;;;;;;4916136;29;20404;-66
2022/11/18 00:19:21;;;;;;;12.02;6.10;;;8.80;99.90;;;;;;4915473;29;20052;-66
2022/11/18 00:21:49;;;;;;;11.77;5.57;;;8.80;99.90;;;;;;4915763;29;20052;-68
2022/11/18 00:24:17;;;;;;;10.25;5.25;;;8.80;99.90;;;;;;4912206;29;20051;-67
2022/11/18 00:26:44;;;;;;;11.32;5.63;;;8.70;99.90;;;;;;4906950;29;20052;-67
2022/11/18 00:29:12;;;;;;;8.68;5.20;;;8.70;99.90;;;;;;4915271;29;20040;-67
2022/11/18 00:31:40;;;;;;;10.70;6.57;;;8.60;99.90;;;;;;4915451;29;20044;-67
2022/11/18 00:34:11;;;;;;;11.35;6.35;;;8.60;99.90;;;;;;4915190;29;20099;-67
2022/11/18 00:36:39;;;;;;;15.73;5.18;;;8.60;99.90;;;;;;4915297;29;20673;-67
2022/11/18 00:39:09;;;;;;;11.57;5.97;;;8.60;99.90;;;;;;4915358;29;20048;-67
2022/11/18 00:44:23;;;;;;;13.00;6.68;;;8.60;99.90;;;;;;4914753;29;20063;-67
2022/11/18 00:46:51;;;;;;;9.95;6.20;;;8.60;99.90;;;;;;4911464;29;20045;-67
2022/11/18 00:49:18;;;;;;;8.70;5.65;;;8.50;99.90;;;;;;4915197;29;20479;-66
2022/11/18 00:51:45;;;;;;;10.90;6.90;;;8.50;99.90;;;;;;4915205;29;20040;-67
2022/11/18 00:54:13;;;;;;;9.48;5.70;;;8.50;99.90;;;;;;4901935;29;20475;-67
2022/11/18 00:56:40;;;;;;;13.07;6.40;;;8.50;99.90;;;;;;4910333;29;20070;-67
2022/11/18 00:59:07;;;;;;;12.13;6.38;;;8.50;99.90;;;;;;4912244;29;20538;-67
2022/11/18 01:01:35;;;;;;;12.38;7.13;;;8.50;99.90;;;;;;4912877;29;20044;-67
2022/11/18 01:04:03;;;;;;;11.43;6.57;;;8.50;99.90;;;;;;4911110;29;20079;-67
2022/11/18 01:06:30;;;;;;;12.02;6.57;;;8.50;99.90;;;;;;4910709;29;20048;-67
2022/11/18 01:08:58;;;;;;;14.38;6.70;;;8.40;99.90;;;;;;4912981;29;20044;-68
2022/11/18 01:14:11;;;;;;;11.50;5.93;;;8.40;99.90;;;;;;4912242;29;20047;-67
2022/11/18 01:16:38;;;;;;;10.25;6.60;;;8.30;99.90;;;;;;4909883;29;20083;-67
2022/11/18 01:19:05;;;;;;;13.45;6.75;;;8.20;99.90;;;;;;4912104;29;20041;-67
2022/11/18 01:21:32;;;;;;;9.27;5.93;;;8.20;99.90;;;;;;4911824;29;20047;-67
2022/11/18 01:24:00;;;;;;;12.52;7.47;;;8.10;99.90;;;;;;4909459;29;20078;-66
2022/11/18 01:26:27;;;;;;;11.35;6.53;;;8.10;99.90;;;;;;4912938;29;20095;-67
2022/11/18 01:28:56;;;;;;;11.23;7.13;;;8.00;99.90;;;;;;4914316;29;20054;-67
2022/11/18 01:31:24;;;;;;;15.48;6.70;;;8.00;99.90;;;;;;4914184;29;20480;-67
2022/11/18 01:33:51;;;;;;;12.57;6.57;;;7.90;99.90;;;;;;4914360;29;20056;-68
2022/11/18 01:36:21;;;;;;;12.23;6.93;;;7.90;99.90;;;;;;4911920;29;20507;-67
2022/11/18 01:38:50;;;;;;;12.18;7.63;;;7.80;99.90;;;;;;4913146;29;20062;-66
2022/11/18 01:41:18;;;;;;;12.63;7.20;;;7.80;99.90;;;;;;4910853;29;20084;-67
2022/11/18 01:44:04;;;;;;;14.52;8.20;;;7.80;99.90;;;;;;4911548;29;20503;-68
2022/11/18 01:46:33;;;;;;;13.18;7.93;;;7.80;99.90;;;;;;4912530;29;20048;-67
2022/11/18 01:49:05;;;;;;;16.75;8.20;;;7.80;99.90;;;;;;4913566;29;20052;-67
2022/11/18 01:51:33;;;;;;;;;;;7.80;99.90;;;;;;4910782;29;20056;-67
2022/11/18 01:54:10;;;;;;;11.20;7.28;;;7.90;99.90;;;;;;4911061;29;19934;-68
2022/11/18 01:56:44;;;;;;;15.13;7.70;;;7.90;99.90;;;;;;4913066;29;20054;-67
2022/11/18 01:59:16;;;;;;;14.35;7.80;;;8.00;99.90;;;;;;4912673;29;20062;-67
2022/11/18 02:01:44;;;;;;;13.40;7.85;;;8.00;99.90;;;;;;4914239;29;20115;-67
2022/11/18 02:04:13;;;;;;;13.70;8.45;;;8.10;99.90;;;;;;4912203;29;20116;-67
2022/11/18 02:06:45;;;;;;;14.85;7.75;;;8.10;99.90;;;;;;4913082;29;20135;-67
2022/11/18 02:09:15;;;;;;;14.45;7.97;;;8.10;99.90;;;;;;4911377;29;20507;-68
2022/11/18 02:11:55;;;;;;;12.60;7.18;;;8.20;99.90;;;;;;4910604;29;20506;-67
2022/11/18 02:14:29;;;;;;;14.82;7.85;;;8.20;99.90;;;;;;4913854;29;20048;-67
2022/11/18 02:17:14;;;;;;;16.58;7.80;;;8.20;99.90;;;;;;4911300;29;20143;-67
2022/11/18 02:20:13;;;;;;;10.38;7.20;;;8.20;99.90;;;;;;4913973;29;20047;-67
2022/11/18 02:23:14;;;;;;;13.73;8.30;;;8.20;99.90;;;;;;4913634;29;20052;-68
2022/11/18 02:26:03;;;;;;;14.98;8.38;;;8.10;99.90;;;;;;4909267;29;20525;-67
2022/11/18 02:28:52;;;;;;;13.63;7.55;;;8.10;99.90;;;;;;4931492;29;20052;-67
2022/11/18 02:31:43;;;;;;;14.45;7.53;;;8.10;99.90;;;;;;4915830;29;20616;-67
2022/11/18 02:34:28;;;;;;;12.80;8.50;;;8.00;99.90;;;;;;4910117;29;20060;-67
2022/11/18 02:37:33;;;;;;;16.38;8.55;;;8.00;99.90;;;;;;4914575;29;20468;-67
2022/11/18 02:40:12;;;;;;;13.18;8.45;;;8.00;99.90;;;;;;4915491;29;20062;-67
2022/11/18 02:42:42;;;;;;;14.20;8.88;;;8.00;99.90;;;;;;4916408;29;20040;-67
2022/11/18 02:45:14;;;;;;;12.38;8.82;;;8.00;99.90;;;;;;4917398;29;20054;-66
2022/11/18 02:47:44;;;;;;;13.73;8.75;;;8.00;99.90;;;;;;4915386;29;20036;-67
2022/11/18 02:50:16;;;;;;;16.58;9.05;;;8.10;99.90;;;;;;4915588;29;20044;-67
2022/11/18 02:52:45;;;;;;;15.73;8.90;;;8.10;99.90;;;;;;4916383;29;20143;-66
2022/11/18 02:55:14;;;;;;;14.05;8.38;;;8.10;99.90;;;;;;4915443;29;20048;-67
2022/11/18 02:57:43;;;;;;;15.35;8.27;;;8.20;99.90;;;;;;4917547;29;20051;-67
2022/11/18 03:00:11;;;;;;;14.27;8.13;;;8.20;99.90;;;;;;4915784;29;20503;-67
2022/11/18 03:02:45;;;;;;;12.30;8.35;;;8.20;99.90;;;;;;4916991;29;20404;-67
2022/11/18 03:05:26;;;;;;;20.95;10.65;;;8.30;99.90;;;;;;4917067;29;20052;-68
2022/11/18 03:07:56;;;;;;;15.07;8.15;;;8.30;99.90;;;;;;4903669;29;20478;-68
2022/11/18 03:10:29;;;;;;;14.82;8.77;;;8.30;99.90;;;;;;4916997;29;20131;-67
2022/11/18 03:13:11;;;;;;;12.05;7.97;;;8.30;99.90;;;;;;4910185;29;20128;-67
2022/11/18 03:15:56;;;;;;;12.48;8.38;;;8.30;99.90;;;;;;4912580;29;20071;-68
2022/11/18 03:18:43;;;;;;;13.02;7.95;;;8.30;99.90;;;;;;4916991;29;20074;-67
2022/11/18 03:21:19;;;;;;;15.10;8.32;;;8.30;99.90;;;;;;4915218;29;20455;-67
2022/11/18 03:23:56;;;;;;;15.30;8.75;;;8.30;99.90;;;;;;4917351;29;20067;-67
2022/11/18 03:26:35;;;;;;;12.35;8.05;;;8.30;99.90;;;;;;4911450;29;20052;-67
2022/11/18 03:29:17;;;;;;;13.55;8.30;;;8.30;99.90;;;;;;4915853;29;20044;-67
2022/11/18 03:31:49;;;;;;;;;;;8.20;99.90;;;;;;4911446;29;20140;-67
2022/11/18 03:34:33;;;;;;;16.52;8.55;;;8.20;99.90;;;;;;4913837;29;19934;-67
2022/11/18 03:37:02;;;;;;;12.55;7.75;;;8.30;99.90;;;;;;4914748;29;20676;-67
2022/11/18 03:39:41;;;;;;;14.48;8.63;;;8.20;99.90;;;;;;4915147;29;20051;-67
2022/11/18 03:42:38;;;;;;;14.70;8.20;;;8.20;99.90;;;;;;4912392;29;20048;-66
2022/11/18 03:45:18;;;;;;;12.25;8.35;;;8.20;99.90;;;;;;4901530;29;20048;-67
2022/11/18 03:48:06;;;;;;;11.98;7.20;;;8.20;99.90;;;;;;4912510;29;20048;-66
2022/11/18 03:50:39;;;;;;;15.00;7.45;;;8.10;99.90;;;;;;4909248;29;20072;-66
2022/11/18 03:53:09;;;;;;;10.38;6.90;;;8.20;99.90;;;;;;4913022;29;20048;-68
2022/11/18 03:55:40;;;;;;;13.20;6.03;;;8.20;99.90;;;;;;4913965;29;20552;-67
2022/11/18 03:58:25;;;;;;;10.38;5.72;;;8.20;99.90;;;;;;4911483;29;20179;-66
2022/11/18 04:01:00;;;;;;;8.35;5.15;;;8.20;99.90;;;;;;4913998;29;20067;-67
2022/11/18 04:03:27;;;;;;;9.45;5.82;;;8.20;99.90;;;;;;4912584;29;20045;-67
2022/11/18 04:06:25;;;;;;;10.98;5.72;;;8.20;99.90;;;;;;4896467;29;20511;-68
2022/11/18 04:08:58;;;;;;;8.55;5.50;;;8.20;99.90;;;;;;4912727;29;20438;-66
2022/11/18 04:14:20;;;;;;;10.40;5.05;;;8.30;99.90;;;;;;4912200;29;20047;-68
2022/11/18 04:16:51;;;;;;;7.75;4.30;;;8.30;99.90;;;;;;4914074;29;20048;-66
2022/11/18 04:19:18;;;;;;;7.18;4.15;;;8.30;99.90;;;;;;4909800;29;20051;-66
2022/11/18 04:21:50;;;;;;;6.10;3.80;;;8.40;99.90;;;;;;4913591;29;20044;-67
2022/11/18 04:24:17;;;;;;;8.50;4.00;;;8.40;99.90;;;;;;4913673;29;20541;-68
2022/11/18 04:26:44;;;;;;;6.57;4.30;;;8.40;99.90;;;;;;4911742;29;20457;-66
2022/11/18 04:29:12;;;;;;;7.95;4.45;;;8.40;99.90;;;;;;4912584;29;20048;-66
2022/11/18 04:31:39;;;;;;;8.95;5.38;;;8.40;99.90;;;;;;4914361;29;20040;-66
2022/11/18 04:34:06;;;;;;;9.07;4.45;;;8.40;99.90;;;;;;4913832;29;20071;-66
2022/11/18 04:36:33;;;;;;;7.18;4.15;;;8.30;99.90;;;;;;4905557;29;20501;-66
2022/11/18 04:39:01;;;;;;;8.93;4.90;;;8.30;99.90;;;;;;4913655;29;20048;-66
2022/11/18 04:44:14;;;;;;;10.30;5.45;;;8.30;99.90;;;;;;4924004;29;20044;-67
2022/11/18 04:46:42;;;;;;;9.73;4.75;;;8.30;99.90;;;;;;4913355;29;20056;-67
2022/11/18 04:49:12;;;;;;;8.68;4.90;;;8.30;99.90;;;;;;4914691;29;20063;-67
2022/11/18 04:51:40;;;;;;;8.52;5.00;;;8.30;99.90;;;;;;4913930;29;20050;-66
2022/11/18 04:54:08;;;;;;;8.45;4.30;;;8.30;99.90;;;;;;4913840;29;20051;-67
2022/11/18 04:56:36;;;;;;;6.97;4.38;;;8.30;99.90;;;;;;4910859;29;20084;-67
2022/11/18 04:59:04;;;;;;;8.57;4.43;;;8.30;99.90;;;;;;4912983;29;20094;-67
2022/11/18 05:01:32;;;;;;;7.70;4.50;;;8.30;99.90;;;;;;4914967;29;20483;-67
2022/11/18 05:04:01;;;;;;;7.38;3.80;;;8.30;99.90;;;;;;4913238;29;20052;-67
2022/11/18 05:06:29;;;;;;;6.28;3.22;;;8.30;99.90;;;;;;4914583;29;20056;-67
2022/11/18 05:08:57;;;;;;;8.18;3.78;;;8.20;99.90;;;;;;4914015;29;20047;-68
2022/11/18 05:14:14;;;;;;;9.60;3.53;;;8.20;99.90;;;;;;4912966;29;20551;-67
2022/11/18 05:16:41;;;;;;;7.90;3.70;;;8.20;99.90;;;;;;4910924;29;20063;-66
2022/11/18 05:19:09;;;;;;;7.60;3.67;;;8.30;99.90;;;;;;4912365;29;20052;-66
2022/11/18 05:21:37;;;;;;;11.60;3.40;;;8.30;99.90;;;;;;4913620;29;20127;-67
2022/11/18 05:24:04;;;;;;;7.95;3.83;;;8.20;99.90;;;;;;4914369;29;20052;-67
2022/11/18 05:26:32;;;;;;;7.22;3.70;;;8.30;99.90;;;;;;4910538;29;20866;-67
2022/11/18 05:28:59;;;;;;;6.95;3.90;;;8.30;99.90;;;;;;4909180;29;20040;-68
2022/11/18 05:31:27;;;;;;;5.97;3.72;;;8.30;99.90;;;;;;4914006;29;20048;-67
2022/11/18 05:33:54;;;;;;;9.70;4.68;;;8.30;99.90;;;;;;4912289;29;20042;-67
2022/11/18 05:36:22;;;;;;;7.80;4.20;;;8.30;99.90;;;;;;4911352;29;20502;-67
2022/11/18 05:38:49;;;;;;;9.68;4.78;;;8.30;99.90;;;;;;4913017;29;20059;-68
2022/11/18 05:44:04;;;;;;;9.35;5.18;;;8.30;99.90;;;;;;4912841;29;20464;-66
2022/11/18 05:46:31;;;;;;;10.23;5.63;;;8.30;99.90;;;;;;4909852;29;20055;-66
2022/11/18 05:48:59;;;;;;;13.27;6.03;;;8.30;99.90;;;;;;4911517;29;20064;-66
2022/11/18 05:51:26;;;;;;;8.93;5.60;;;8.40;99.90;;;;;;4910380;29;20067;-67
2022/11/18 05:53:54;;;;;;;10.15;5.78;;;8.40;99.90;;;;;;4906257;29;20044;-68
2022/11/18 05:56:27;;;;;;;11.57;6.05;;;8.40;99.90;;;;;;4913675;29;20511;-66
2022/11/18 05:58:54;;;;;;;11.20;5.85;;;8.30;99.90;;;;;;4910109;29;20063;-67
2022/11/18 06:01:28;;;;;;;12.57;6.18;;;8.30;99.90;;;;;;4912695;29;20060;-66
2022/11/18 06:03:56;;;;;;;9.68;5.05;;;8.30;99.90;;;;;;4912074;29;20474;-67
2022/11/18 06:06:24;;;;;;;12.25;5.47;;;8.30;99.90;;;;;;4912400;29;20690;-67
2022/11/18 06:09:13;;;;;;;11.90;5.45;;;8.30;99.90;;;;;;4910508;29;20063;-67
2022/11/18 06:11:44;;;;;;;8.82;4.10;;;8.30;99.90;;;;;;4902175;29;20070;-67
2022/11/18 06:14:24;;;;;;;6.93;3.80;;;8.30;99.90;;;;;;4913115;29;20047;-68
2022/11/18 06:16:57;;;;;;;8.38;4.13;;;8.30;99.90;;;;;;4913620;29;20093;-67
2022/11/18 06:19:25;;;;;;;7.15;3.80;;;8.30;99.90;;;;;;4911149;29;20059;-67
2022/11/18 06:21:52;;;;;;;7.22;3.60;;;8.30;99.90;;;;;;4912876;29;20140;-68
2022/11/18 06:24:20;;;;;;;6.60;4.20;;;8.30;99.90;;;;;;4911702;29;20076;-67
2022/11/18 06:26:48;;;;;;;5.50;3.10;;;8.30;99.90;;;;;;4900943;29;20562;-67
2022/11/18 06:29:18;;;;;;;5.18;3.10;;;8.30;99.90;;;;;;4911984;29;20050;-67
2022/11/18 06:31:52;;;;;;;7.50;3.30;;;8.30;99.90;;;;;;4912832;29;20531;-67
2022/11/18 06:34:19;;;;;;;6.85;3.28;;;8.30;99.90;;;;;;4919872;29;20119;-67
2022/11/18 06:36:46;;;;;;;6.38;3.17;;;8.30;99.90;;;;;;4907064;29;20780;-66
2022/11/18 06:39:14;;;;;;;4.70;2.90;;;8.30;99.90;;;;;;4906132;29;20681;-66
2022/11/18 06:41:42;;;;;;;6.45;3.40;;;8.30;99.90;;;;;;4910978;29;20207;-66
2022/11/18 06:44:11;;;;;;;5.07;3.25;;;8.20;99.90;;;;;;4911924;29;20086;-66
2022/11/18 06:46:57;;;;;;;6.55;3.30;;;8.30;99.90;;;;;;4914073;29;20051;-66
2022/11/18 06:49:26;;;;;;;8.05;3.58;;;8.20;99.90;;;;;;4912086;29;20048;-65
2022/11/18 06:51:54;;;;;;;5.18;2.88;;;8.20;99.90;;;;;;4912619;29;20052;-65
2022/11/18 06:54:21;;;;;;;9.27;3.60;;;8.20;99.90;;;;;;4905454;29;20067;-65
2022/11/18 06:56:48;;;;;;;9.95;3.30;;;8.20;99.90;;;;;;4910964;29;20166;-66
2022/11/18 06:59:22;;;;;;;5.47;3.45;;;8.20;99.90;;;;;;4912635;29;20388;-67
2022/11/18 07:01:51;;;;;;;8.80;2.75;;;8.20;99.90;;;;;;4916723;29;20051;-67
2022/11/18 07:04:20;;;;;;;7.63;2.97;;;8.10;99.90;;;;;;4912538;29;20121;-66
2022/11/18 07:06:47;;;;;;;5.88;3.00;;;8.10;99.90;;;;;;4912849;29;20052;-66
2022/11/18 07:09:15;;;;;;;5.05;2.95;;;8.10;99.90;;;;;;4914694;29;20161;-67
2022/11/18 07:11:42;;;;;;;8.60;3.10;;;8.10;99.90;;;;;;4907063;29;20490;-69
2022/11/18 07:14:11;;;;;;;4.50;2.88;;;8.10;99.90;;;;;;4916198;29;20054;-68
2022/11/18 07:16:38;;;;;;;6.50;3.25;;;8.20;99.90;;;;;;4911396;29;20046;-68
2022/11/18 07:19:10;;;;;;;6.32;3.20;;;8.10;99.90;;;;;;4909656;29;20052;-68
2022/11/18 07:21:38;;;;;;;8.25;3.50;;;8.10;99.90;;;;;;4914771;29;21842;-67
2022/11/18 07:24:07;;;;;;;6.47;3.38;;;8.10;99.90;;;;;;4916229;29;20056;-67
2022/11/18 07:26:35;;;;;;;10.27;3.30;;;8.10;99.90;;;;;;4914957;29;20063;-67
2022/11/18 07:29:03;;;;;;;5.80;3.90;;;8.20;99.90;;;;;;4913762;29;20133;-66
2022/11/18 07:31:31;;;;;;;6.15;3.72;;;8.10;99.90;;;;;;4913697;29;20141;-67
2022/11/18 07:33:58;;;;;;;9.45;4.18;;;8.10;99.90;;;;;;4913946;29;20052;-68
2022/11/18 07:36:27;;;;;;;8.90;4.70;;;8.10;99.90;;;;;;4907671;29;20574;-67
2022/11/18 07:39:03;;;;;;;9.23;5.45;;;8.10;99.90;;;;;;4914386;29;20059;-67
2022/11/18 07:41:32;;;;;;;8.65;5.03;;;8.10;99.90;;;;;;4913601;29;20063;-71
2022/11/18 07:44:01;;;;;;;10.52;5.40;;;8.20;99.90;;;;;;4901090;29;20499;-66
2022/11/18 07:46:38;;;;;;;10.00;5.50;;;8.10;99.90;;;;;;4911950;29;20059;-68
2022/11/18 07:49:08;;;;;;;10.07;5.80;;;8.10;99.90;;;;;;4903511;29;20047;-68
2022/11/18 07:51:38;;;;;;;14.10;6.82;;;8.10;99.90;;;;;;4906151;29;20048;-66
2022/11/18 07:54:11;;;;;;;10.75;6.10;;;8.10;99.90;;;;;;4908638;29;20127;-66
2022/11/18 07:56:39;;;;;;;10.45;6.07;;;8.10;99.90;;;;;;4911780;29;20859;-67
2022/11/18 07:59:07;;;;;;;9.82;5.47;;;8.10;99.90;;;;;;4909846;29;20055;-66
2022/11/18 08:01:35;;;;;;;9.60;5.75;;;8.10;99.90;;;;;;4910193;29;20055;-67
2022/11/18 08:04:05;;;;;;;12.35;7.28;;;8.10;99.90;;;;;;4910763;29;20515;-67
2022/11/18 08:06:34;;;;;;;10.77;6.55;;;8.10;99.90;;;;;;4908089;29;20434;-67
2022/11/18 08:09:03;;;;;;;11.85;6.50;;;8.10;99.90;;;;;;4910525;29;20139;-67
2022/11/18 08:11:31;;;;;;;9.77;6.28;;;8.10;99.90;;;;;;4908886;29;20529;-69
2022/11/18 08:13:59;;;;;;;12.27;6.13;;;8.10;99.90;;;;;;4909530;29;20052;-68
2022/11/18 08:16:27;;;;;;;11.27;6.30;;;8.10;99.90;;;;;;4909984;29;20135;-67
2022/11/18 08:18:58;;;;;;;9.60;5.93;;;8.20;99.90;;;;;;4909762;29;20048;-67
2022/11/18 08:21:25;;;;;;;10.15;5.88;;;8.10;99.90;;;;;;4900899;29;20055;-66
2022/11/18 08:23:54;;;;;;;8.63;5.50;;;8.10;99.90;;;;;;4913319;29;20062;-67
2022/11/18 08:26:23;;;;;;;10.15;5.07;;;8.20;99.90;;;;;;4909203;29;20051;-67
2022/11/18 08:28:52;;;;;;;7.00;4.50;;;8.10;99.90;;;;;;4910408;29;20055;-66
2022/11/18 08:31:25;;;;;;;5.88;4.20;;;8.10;99.90;;;;;;4911491;29;20040;-66
2022/11/18 08:33:55;;;;;;;7.03;4.25;;;8.10;99.90;;;;;;4902134;29;20523;-67
2022/11/18 08:36:25;;;;;;;7.22;4.03;;;8.10;99.90;;;;;;4898404;29;20056;-67
2022/11/18 08:38:57;;;;;;;4.95;3.70;;;8.10;99.90;;;;;;4909911;29;20074;-67
2022/11/18 08:41:30;;;;;;;5.70;3.22;;;8.10;99.90;;;;;;4908685;29;20063;-67
2022/11/18 08:43:57;;;;;;;7.13;3.85;;;8.00;99.90;;;;;;4906750;29;20303;-67
2022/11/18 08:46:25;;;;;;;5.38;3.22;;;8.00;99.90;;;;;;4904982;29;20139;-68
2022/11/18 08:48:52;;;;;;;9.13;3.65;;;8.10;99.90;;;;;;4910794;29;20044;-69
2022/11/18 08:51:19;;;;;;;6.30;4.10;;;8.00;99.90;;;;;;4913174;29;20098;-67
2022/11/18 08:53:46;;;;;;;5.85;3.20;;;8.00;99.90;;;;;;4905276;29;20523;-66
2022/11/18 08:56:16;;;;;;;5.22;3.20;;;8.10;99.90;;;;;;4908791;29;20059;-67
2022/11/18 08:58:44;;;;;;;4.90;2.58;;;8.10;99.90;;;;;;4907945;29;20078;-68
2022/11/18 09:01:12;;;;;;;3.88;2.63;;;8.00;99.90;;;;;;4905359;29;20056;-68
2022/11/18 09:03:40;;;;;;;5.28;2.53;;;8.10;99.90;;;;;;4901897;29;20500;-68
2022/11/18 09:06:16;;;;;;;5.82;2.60;;;8.10;99.90;;;;;;4909093;29;20337;-67
2022/11/18 09:08:45;;;;;;;4.13;2.20;;;8.10;99.90;;;;;;4910338;29;20056;-66
2022/11/18 09:11:14;;;;;;;3.42;2.05;;;8.00;99.90;;;;;;4909891;29;20447;-65
2022/11/18 09:13:42;;;;;;;5.53;2.13;;;8.10;99.90;;;;;;4908369;29;20052;-66
2022/11/18 09:16:31;;;;;;;5.90;2.42;;;8.10;99.90;;;;;;4900929;29;20040;-67
2022/11/18 09:18:59;;;;;;;3.25;1.92;;;8.10;99.90;;;;;;4912631;29;20396;-67
2022/11/18 09:21:46;;;;;;;4.82;1.75;;;8.10;99.90;;;;;;4907466;29;20056;-66
2022/11/18 09:24:15;;;;;;;3.70;1.70;;;8.10;99.90;;;;;;4909952;29;20056;-67
2022/11/18 09:26:43;;;;;;;3.95;1.90;;;8.10;99.90;;;;;;4911406;29;20519;-67
2022/11/18 09:29:10;;;;;;;4.88;2.00;;;8.10;99.90;;;;;;4909074;29;20077;-67
2022/11/18 09:31:37;;;;;;;3.55;1.95;;;8.10;99.90;;;;;;4904190;29;20075;-66
2022/11/18 09:34:05;;;;;;;3.95;1.90;;;8.10;99.90;;;;;;4903743;29;20088;-69
2022/11/18 09:36:32;;;;;;;3.10;1.90;;;8.10;99.90;;;;;;4904243;29;20906;-68
2022/11/18 09:39:00;;;;;;;4.57;1.70;;;8.10;99.90;;;;;;4906060;29;20550;-68
2022/11/18 09:41:46;;;;;;;2.85;1.60;;;8.10;99.90;;;;;;4900118;29;20152;-68
2022/11/18 09:44:29;;;;;;;2.85;1.55;;;8.10;99.90;;;;;;4903084;29;20072;-70
2022/11/18 09:47:15;;;;;;;4.53;1.80;;;8.10;99.90;;;;;;4917396;29;20052;-66
2022/11/18 09:49:44;;;;;;;4.50;1.92;;;8.10;99.90;;;;;;4905587;29;20058;-68
2022/11/18 09:52:11;;;;;;;2.10;1.30;;;8.10;99.90;;;;;;4910001;29;20076;-68
2022/11/18 09:54:39;;;;;;;2.22;1.20;;;8.10;99.90;;;;;;4910016;29;20050;-69
2022/11/18 09:57:39;;;;;;;2.03;1.17;;;8.20;99.90;;;;;;4908894;29;20487;-69
2022/11/18 10:00:22;;;;;;;5.72;3.17;;;8.20;99.90;;;;;;4906647;29;20091;-69
2022/11/18 10:03:21;;;;;;;1.70;1.20;;;8.10;99.90;;;;;;4899158;29;20044;-68
2022/11/18 10:06:16;;;;;;;4.65;1.70;;;8.10;99.90;;;;;;4892032;29;20056;-68
2022/11/18 10:09:09;;;;;;;2.65;1.60;;;8.00;99.90;;;;;;4910006;29;20151;-67
2022/11/18 10:12:05;;;;;;;2.88;1.50;;;8.10;99.90;;;;;;4904502;29;20112;-68
2022/11/18 10:14:52;;;;;;;2.42;1.48;;;8.10;99.90;;;;;;4852794;29;20083;-68
2022/11/18 10:17:54;;;;;;;2.75;1.60;;;8.10;99.90;;;;;;4868087;29;20052;-68
2022/11/18 10:20:30;;;;;;;2.85;1.48;;;8.10;99.90;;;;;;4842440;29;20053;-69
2022/11/18 10:23:25;;;;;;;3.30;1.50;;;8.00;99.90;;;;;;4868327;29;20635;-67
2022/11/18 10:25:53;;;;;;;3.10;1.45;;;8.00;99.90;;;;;;4868588;29;20590;-68
2022/11/18 10:28:28;;;;;;;4.18;1.50;;;8.00;99.90;;;;;;4862821;29;20053;-68
2022/11/18 10:31:08;;;;;;;4.57;1.88;;;8.00;99.90;;;;;;4852975;29;20084;-68
2022/11/18 10:33:37;;;;;;;2.00;1.38;;;8.10;99.90;;;;;;4869421;29;20068;-67
2022/11/18 10:36:11;;;;;;;3.45;1.60;;;8.00;99.90;;;;;;4869166;29;20136;-69
2022/11/18 10:38:39;;;;;;;2.83;1.50;;;8.00;99.90;;;;;;4856160;29;20390;-70
2022/11/18 10:41:17;;;;;;;2.65;1.40;;;8.10;99.90;;;;;;4867798;29;20049;-68
2022/11/18 10:43:51;;;;;;;2.28;1.23;;;8.10;99.90;;;;;;4872389;29;20052;-68
2022/11/18 10:46:33;;;;;;;3.17;1.35;;;8.10;99.90;;;;;;4855813;29;20064;-68
2022/11/18 10:49:11;;;;;;;3.50;1.60;;;8.10;99.90;;;;;;4870431;29;20057;-68
2022/11/18 10:51:41;;;;;;;2.60;1.40;;;8.10;99.90;;;;;;4891391;29;20400;-67
2022/11/18 10:54:16;;;;;;;3.25;1.80;;;8.10;99.90;;;;;;4913992;29;20534;-68
2022/11/18 10:56:49;;;;;;;2.88;1.75;;;8.10;99.90;;;;;;4911988;29;20048;-68
2022/11/18 10:59:30;;;;;;;3.08;1.70;;;8.10;99.90;;;;;;4911223;29;20070;-67
2022/11/18 11:02:19;;;;;;;2.30;1.42;;;8.20;99.90;;;;;;4912862;29;20135;-68
2022/11/18 11:04:48;;;;;;;3.63;1.52;;;8.20;99.90;;;;;;4901438;29;20048;-68
2022/11/18 11:07:32;;;;;;;2.22;1.33;;;8.20;99.90;;;;;;4910841;29;20518;-67
2022/11/18 11:10:22;;;;;;;3.05;1.60;;;8.10;99.90;;;;;;4916554;29;20514;-68
2022/11/18 11:13:03;;;;;;;2.13;1.27;;;8.20;99.90;;;;;;4905631;29;20284;-70
2022/11/18 11:15:47;;;;;;;3.58;1.63;;;8.10;99.90;;;;;;4911776;29;20050;-67
2022/11/18 11:18:41;;;;;;;2.42;1.50;;;8.20;99.90;;;;;;4911192;29;20146;-68
2022/11/18 11:21:21;;;;;;;2.63;1.75;;;8.20;99.90;;;;;;4912613;29;20407;-69
2022/11/18 11:23:48;;;;;;;3.20;1.75;;;8.20;99.90;;;;;;4913186;29;20163;-67
2022/11/18 11:26:40;;;;;;;3.55;1.70;;;8.20;99.90;;;;;;4909870;29;20052;-66
2022/11/18 11:30:02;;;;;;;2.90;1.67;;;8.30;99.90;;;;;;4910703;29;20044;-67
2022/11/18 11:32:35;;;;;;;3.37;1.60;;;8.30;99.90;;;;;;4912540;29;20104;-67
2022/11/18 11:35:24;;;;;;;2.50;1.50;;;8.30;99.90;;;;;;4911696;29;20299;-69
2022/11/18 11:38:09;;;;;;;3.28;2.05;;;8.30;99.90;;;;;;4911700;29;20059;-69
2022/11/18 11:41:05;;;;;;;3.03;1.70;;;8.20;99.90;;;;;;4910898;29;20452;-69
2022/11/18 11:43:42;;;;;;;2.88;1.58;;;8.20;99.90;;;;;;4911827;29;20114;-68
2022/11/18 11:46:19;;;;;;;2.95;1.90;;;8.30;99.90;;;;;;4909980;29;20044;-69
2022/11/18 11:49:14;;;;;;;3.38;1.83;;;8.30;99.90;;;;;;4906575;29;20055;-69
2022/11/18 11:51:57;;;;;;;4.78;2.10;;;8.50;99.90;;;;;;4905672;29;20053;-68
2022/11/18 11:54:43;;;;;;;;;;;8.40;99.90;;;;;;4909014;29;20099;-69
2022/11/18 11:57:16;;;;;;;2.85;1.80;;;8.40;99.90;;;;;;4910262;29;19931;-69
2022/11/18 12:00:00;;;;;;;3.42;2.00;;;8.40;99.90;;;;;;4911779;29;20059;-69
2022/11/18 12:03:09;;;;;;;3.13;2.10;;;8.40;99.90;;;;;;4911603;29;20524;-69
2022/11/18 12:05:39;;;;;;;4.22;2.45;;;8.40;99.90;;;;;;4915528;29;20052;-68
2022/11/18 12:08:24;;;;;;;4.57;2.63;;;8.40;99.90;;;;;;4908984;29;20104;-68
2022/11/18 12:11:13;;;;;;;4.35;2.42;;;8.40;99.90;;;;;;4910699;29;20044;-68
2022/11/18 12:14:32;;;;;;;2.97;2.03;;;8.50;99.90;;;;;;4910088;29;20487;-70
2022/11/18 12:17:14;;;;;;;4.60;2.55;;;8.60;99.90;;;;;;4887336;29;20544;-69
2022/11/18 12:19:41;;;;;;;3.65;2.28;;;8.60;99.90;;;;;;4888030;29;20171;-69
2022/11/18 12:22:09;;;;;;;4.75;2.10;;;8.60;99.90;;;;;;4872875;29;20056;-68
2022/11/18 12:24:41;;;;;;;3.90;2.50;;;8.60;99.90;;;;;;4874009;29;20057;-68
2022/11/18 12:27:08;;;;;;;4.38;2.90;;;8.60;99.90;;;;;;4888094;29;20056;-69
2022/11/18 12:29:47;;;;;;;5.15;2.80;;;8.50;99.90;;;;;;4887969;29;20436;-68
2022/11/18 12:32:52;;;;;;;5.07;2.63;;;8.50;99.90;;;;;;4886145;29;20059;-69
2022/11/18 12:35:28;;;;;;;4.72;3.00;;;8.60;99.90;;;;;;4872004;29;20053;-68
2022/11/18 12:37:58;;;;;;;4.03;2.22;;;8.60;99.90;;;;;;4873276;29;20666;-68
2022/11/18 12:40:34;;;;;;;4.35;2.50;;;8.70;99.90;;;;;;4887928;29;20048;-68
2022/11/18 12:45:54;;;;;;;4.30;2.58;;;8.60;99.90;;;;;;4886006;29;20053;-68
2022/11/18 12:48:29;;;;;;;4.40;2.25;;;8.60;99.90;;;;;;4883351;29;20092;-69
2022/11/18 12:51:10;;;;;;;4.55;2.45;;;8.70;99.90;;;;;;4871156;29;20049;-68
2022/11/18 12:53:43;;;;;;;3.88;2.13;;;8.70;99.90;;;;;;4913006;29;20043;-69
2022/11/18 12:56:33;;;;;;;5.47;2.90;;;8.60;99.90;;;;;;4908596;29;20062;-69
2022/11/18 12:59:01;;;;;;;4.57;2.70;;;8.50;99.90;;;;;;4911834;29;20761;-68
2022/11/18 13:01:35;;;;;;;6.20;2.58;;;8.50;99.90;;;;;;4910145;29;20423;-70
2022/11/18 13:04:14;;;;;;;3.45;2.35;;;8.60;99.90;;;;;;4922169;29;20052;-68
2022/11/18 13:06:43;;;;;;;4.25;2.65;;;8.50;99.90;;;;;;4910680;29;20048;-69
2022/11/18 13:09:21;;;;;;;3.92;2.50;;;8.50;99.90;;;;;;4908046;29;20076;-68
2022/11/18 13:12:03;;;;;;;4.60;3.00;;;8.60;99.90;;;;;;4908542;29;20052;-68
2022/11/18 13:17:53;;;;;;;5.15;2.88;;;8.70;99.90;;;;;;4907131;29;20500;-68
2022/11/18 13:20:30;;;;;;;5.07;2.60;;;8.60;99.90;;;;;;4884564;29;20056;-68
2022/11/18 13:25:49;;;;;;;3.72;2.28;;;8.50;99.90;;;;;;4907768;29;20055;-68
2022/11/18 13:28:44;;;;;;;6.80;2.92;;;8.50;99.90;;;;;;4915757;29;20043;-68
2022/11/18 13:31:34;;;;;;;4.95;2.90;;;8.50;99.90;;;;;;4905064;29;20049;-68
2022/11/18 13:34:18;;;;;;;5.13;2.10;;;8.50;99.90;;;;;;4902439;29;20151;-68
2022/11/18 13:36:47;;;;;;;4.13;2.40;;;8.50;99.90;;;;;;4909116;29;20050;-68
2022/11/18 13:39:23;;;;;;;4.95;2.17;;;8.60;99.90;;;;;;4909135;29;20048;-68
2022/11/18 13:41:59;;;;;;;4.30;2.42;;;8.50;99.90;;;;;;4878960;29;20052;-69
2022/11/18 13:44:31;;;;;;;3.90;2.33;;;8.50;99.90;;;;;;4879097;29;20043;-67
2022/11/18 13:47:18;;;;;;;8.43;2.25;;;8.50;99.90;;;;;;4898860;29;20049;-70
2022/11/18 13:50:10;;;;;;;5.30;2.47;;;8.40;99.90;;;;;;4904632;29;20055;-67
2022/11/18 13:52:42;;;;;;;5.55;2.45;;;8.40;99.90;;;;;;4902154;29;20078;-66
2022/11/18 13:55:25;;;;;;;3.38;2.30;;;8.40;99.90;;;;;;4907364;29;20080;-67
2022/11/18 13:58:11;;;;;;;4.35;2.47;;;8.50;99.90;;;;;;4892586;29;20047;-67